sensor_id;sensor_type;location;lat;lon;timestamp;pressure;altitude;pressure_sealevel;temperature;humidity
74403;BME280;62837;51.082;13.744;2023-06-04T00:01:20;100798.58;;;14.01;45.35
74403;BME280;62837;51.082;13.744;2023-06-04T00:03:50;100800.11;;;14.15;45.31
74403;BME280;62837;51.082;13.744;2023-06-04T00:06:22;100797.48;;;14.22;44.26
74403;BME280;62837;51.082;13.744;2023-06-04T00:08:53;100795.52;;;14.09;42.94
74403;BME280;62837;51.082;13.744;2023-06-04T00:11:24;100795.47;;;13.84;43.82
74403;BME280;62837;51.082;13.744;2023-06-04T00:13:56;100795.11;;;13.78;43.94
74403;BME280;62837;51.082;13.744;2023-06-04T00:16:27;100795.45;;;13.67;44.17
74403;BME280;62837;51.082;13.744;2023-06-04T00:18:58;100792.60;;;13.55;43.66
74403;BME280;62837;51.082;13.744;2023-06-04T00:21:29;100791.06;;;13.38;44.04
74403;BME280;62837;51.082;13.744;2023-06-04T00:24:00;100791.16;;;13.26;44.26
74403;BME280;62837;51.082;13.744;2023-06-04T00:26:35;100791.10;;;13.16;44.49
74403;BME280;62837;51.082;13.744;2023-06-04T00:29:06;100787.45;;;13.03;44.72
74403;BME280;62837;51.082;13.744;2023-06-04T00:31:38;100784.75;;;12.99;45.16
74403;BME280;62837;51.082;13.744;2023-06-04T00:34:09;100786.02;;;12.96;44.90
74403;BME280;62837;51.082;13.744;2023-06-04T00:36:40;100783.97;;;12.96;45.58
74403;BME280;62837;51.082;13.744;2023-06-04T00:39:11;100782.16;;;13.06;45.56
74403;BME280;62837;51.082;13.744;2023-06-04T00:41:42;100778.70;;;13.21;45.92
74403;BME280;62837;51.082;13.744;2023-06-04T00:44:13;100779.50;;;13.34;45.38
74403;BME280;62837;51.082;13.744;2023-06-04T00:46:43;100778.02;;;13.28;44.59
74403;BME280;62837;51.082;13.744;2023-06-04T00:49:17;100779.41;;;13.07;44.86
74403;BME280;62837;51.082;13.744;2023-06-04T00:51:48;100771.64;;;12.95;45.03
74403;BME280;62837;51.082;13.744;2023-06-04T00:54:20;100773.89;;;12.79;45.15
74403;BME280;62837;51.082;13.744;2023-06-04T00:56:52;100775.98;;;12.70;45.87
74403;BME280;62837;51.082;13.744;2023-06-04T00:59:23;100770.14;;;12.70;45.85
74403;BME280;62837;51.082;13.744;2023-06-04T01:01:56;100768.90;;;12.61;45.78
74403;BME280;62837;51.082;13.744;2023-06-04T01:04:32;100766.43;;;12.56;46.33
74403;BME280;62837;51.082;13.744;2023-06-04T01:07:05;100767.04;;;12.62;46.60
74403;BME280;62837;51.082;13.744;2023-06-04T01:09:39;100769.91;;;12.69;46.79
74403;BME280;62837;51.082;13.744;2023-06-04T01:12:12;100764.98;;;12.75;46.95
74403;BME280;62837;51.082;13.744;2023-06-04T01:14:43;100766.11;;;12.90;46.94
74403;BME280;62837;51.082;13.744;2023-06-04T01:17:17;100766.99;;;12.92;46.03
74403;BME280;62837;51.082;13.744;2023-06-04T01:20:06;100769.22;;;12.73;46.12
74403;BME280;62837;51.082;13.744;2023-06-04T01:22:52;100769.35;;;12.61;46.46
74403;BME280;62837;51.082;13.744;2023-06-04T01:25:34;100772.04;;;12.60;46.48
74403;BME280;62837;51.082;13.744;2023-06-04T01:28:09;100768.01;;;12.60;46.49
74403;BME280;62837;51.082;13.744;2023-06-04T01:30:43;100769.41;;;12.48;47.51
74403;BME280;62837;51.082;13.744;2023-06-04T01:33:17;100760.09;;;12.50;48.02
74403;BME280;62837;51.082;13.744;2023-06-04T01:35:50;100762.65;;;12.64;48.81
74403;BME280;62837;51.082;13.744;2023-06-04T01:38:21;100765.35;;;12.78;48.12
74403;BME280;62837;51.082;13.744;2023-06-04T01:40:52;100762.34;;;12.90;48.25
74403;BME280;62837;51.082;13.744;2023-06-04T01:43:25;100767.84;;;13.01;48.20
74403;BME280;62837;51.082;13.744;2023-06-04T01:45:56;100765.20;;;13.04;47.47
74403;BME280;62837;51.082;13.744;2023-06-04T01:48:27;100769.91;;;13.07;46.96
74403;BME280;62837;51.082;13.744;2023-06-04T01:50:59;100773.54;;;12.98;46.57
74403;BME280;62837;51.082;13.744;2023-06-04T01:53:31;100771.31;;;12.87;46.46
74403;BME280;62837;51.082;13.744;2023-06-04T01:56:02;100769.73;;;12.73;46.34
74403;BME280;62837;51.082;13.744;2023-06-04T01:58:33;100767.31;;;12.50;46.43
74403;BME280;62837;51.082;13.744;2023-06-04T02:01:03;100769.32;;;12.17;47.06
74403;BME280;62837;51.082;13.744;2023-06-04T02:03:35;100768.05;;;11.87;47.79
74403;BME280;62837;51.082;13.744;2023-06-04T02:06:07;100770.60;;;11.77;48.23
74403;BME280;62837;51.082;13.744;2023-06-04T02:08:38;100774.77;;;11.69;48.34
74403;BME280;62837;51.082;13.744;2023-06-04T02:11:10;100775.16;;;11.56;48.68
74403;BME280;62837;51.082;13.744;2023-06-04T02:13:41;100778.98;;;11.34;49.10
74403;BME280;62837;51.082;13.744;2023-06-04T02:16:12;100774.51;;;11.21;49.66
74403;BME280;62837;51.082;13.744;2023-06-04T02:18:43;100775.04;;;11.27;49.85
74403;BME280;62837;51.082;13.744;2023-06-04T02:21:14;100770.92;;;11.32;49.87
74403;BME280;62837;51.082;13.744;2023-06-04T02:23:44;100779.52;;;11.36;49.64
74403;BME280;62837;51.082;13.744;2023-06-04T02:26:15;100780.13;;;11.37;49.87
74403;BME280;62837;51.082;13.744;2023-06-04T02:28:46;100780.69;;;11.46;49.96
74403;BME280;62837;51.082;13.744;2023-06-04T02:31:16;100783.41;;;11.56;49.54
74403;BME280;62837;51.082;13.744;2023-06-04T02:33:47;100779.12;;;11.60;49.39
74403;BME280;62837;51.082;13.744;2023-06-04T02:36:18;100782.05;;;11.57;49.15
74403;BME280;62837;51.082;13.744;2023-06-04T02:38:49;100785.38;;;11.49;49.63
74403;BME280;62837;51.082;13.744;2023-06-04T02:41:20;100787.15;;;11.50;49.46
74403;BME280;62837;51.082;13.744;2023-06-04T02:43:52;100786.52;;;11.45;49.44
74403;BME280;62837;51.082;13.744;2023-06-04T02:46:23;100786.70;;;11.38;49.56
74403;BME280;62837;51.082;13.744;2023-06-04T02:48:54;100788.90;;;11.31;49.70
74403;BME280;62837;51.082;13.744;2023-06-04T02:51:25;100789.13;;;11.27;49.72
74403;BME280;62837;51.082;13.744;2023-06-04T02:53:58;100787.91;;;11.30;49.80
74403;BME280;62837;51.082;13.744;2023-06-04T02:56:29;100788.40;;;11.26;49.51
74403;BME280;62837;51.082;13.744;2023-06-04T02:59:00;100794.41;;;11.11;49.93
74403;BME280;62837;51.082;13.744;2023-06-04T03:01:30;100795.06;;;11.00;50.24
74403;BME280;62837;51.082;13.744;2023-06-04T03:04:02;100794.24;;;10.93;50.22
74403;BME280;62837;51.082;13.744;2023-06-04T03:06:34;100791.36;;;10.85;51.09
74403;BME280;62837;51.082;13.744;2023-06-04T03:09:07;100787.64;;;10.86;51.73
74403;BME280;62837;51.082;13.744;2023-06-04T03:11:38;100790.07;;;10.94;52.56
74403;BME280;62837;51.082;13.744;2023-06-04T03:14:10;100790.56;;;11.01;51.31
74403;BME280;62837;51.082;13.744;2023-06-04T03:16:41;100793.67;;;10.95;51.64
74403;BME280;62837;51.082;13.744;2023-06-04T03:19:12;100796.09;;;10.94;51.81
74403;BME280;62837;51.082;13.744;2023-06-04T03:21:43;100797.67;;;10.97;52.41
74403;BME280;62837;51.082;13.744;2023-06-04T03:24:14;100798.29;;;11.16;52.58
74403;BME280;62837;51.082;13.744;2023-06-04T03:26:45;100794.17;;;11.29;51.73
74403;BME280;62837;51.082;13.744;2023-06-04T03:29:16;100802.63;;;11.47;51.25
74403;BME280;62837;51.082;13.744;2023-06-04T03:31:48;100803.54;;;11.45;50.35
74403;BME280;62837;51.082;13.744;2023-06-04T03:34:20;100806.81;;;11.31;50.61
74403;BME280;62837;51.082;13.744;2023-06-04T03:36:54;100803.37;;;11.22;50.61
74403;BME280;62837;51.082;13.744;2023-06-04T03:39:25;100804.30;;;11.11;50.60
74403;BME280;62837;51.082;13.744;2023-06-04T03:41:56;100810.75;;;11.04;50.96
74403;BME280;62837;51.082;13.744;2023-06-04T03:44:27;100809.56;;;10.88;50.98
74403;BME280;62837;51.082;13.744;2023-06-04T03:46:59;100813.38;;;10.72;51.33
74403;BME280;62837;51.082;13.744;2023-06-04T03:49:30;100813.48;;;10.56;51.69
74403;BME280;62837;51.082;13.744;2023-06-04T03:52:02;100814.64;;;10.47;52.15
74403;BME280;62837;51.082;13.744;2023-06-04T03:54:33;100814.52;;;10.61;52.55
74403;BME280;62837;51.082;13.744;2023-06-04T03:57:05;100820.00;;;10.80;52.16
74403;BME280;62837;51.082;13.744;2023-06-04T03:59:35;100818.98;;;10.85;51.86
74403;BME280;62837;51.082;13.744;2023-06-04T04:02:06;100819.50;;;10.90;51.68
74403;BME280;62837;51.082;13.744;2023-06-04T04:04:37;100823.95;;;10.96;51.70
74403;BME280;62837;51.082;13.744;2023-06-04T04:07:09;100823.33;;;10.99;51.69
74403;BME280;62837;51.082;13.744;2023-06-04T04:09:41;100828.42;;;10.80;51.80
74403;BME280;62837;51.082;13.744;2023-06-04T04:12:12;100828.29;;;10.72;52.28
74403;BME280;62837;51.082;13.744;2023-06-04T04:14:43;100826.91;;;10.82;52.77
74403;BME280;62837;51.082;13.744;2023-06-04T04:17:14;100826.51;;;11.01;52.71
74403;BME280;62837;51.082;13.744;2023-06-04T04:19:45;100831.00;;;11.25;52.33
74403;BME280;62837;51.082;13.744;2023-06-04T04:22:16;100832.15;;;11.58;51.94
74403;BME280;62837;51.082;13.744;2023-06-04T04:24:47;100824.79;;;11.98;51.43
74403;BME280;62837;51.082;13.744;2023-06-04T04:27:19;100825.82;;;12.37;50.89
74403;BME280;62837;51.082;13.744;2023-06-04T04:29:50;100829.40;;;12.83;49.97
74403;BME280;62837;51.082;13.744;2023-06-04T04:32:30;100827.35;;;13.21;49.09
74403;BME280;62837;51.082;13.744;2023-06-04T04:35:01;100824.93;;;13.40;48.51
74403;BME280;62837;51.082;13.744;2023-06-04T04:37:37;100824.98;;;13.58;48.00
74403;BME280;62837;51.082;13.744;2023-06-04T04:40:10;100828.02;;;13.89;47.88
74403;BME280;62837;51.082;13.744;2023-06-04T04:42:43;100824.98;;;14.10;47.13
74403;BME280;62837;51.082;13.744;2023-06-04T04:45:14;100827.03;;;14.28;46.80
74403;BME280;62837;51.082;13.744;2023-06-04T04:47:47;100824.21;;;14.43;46.48
74403;BME280;62837;51.082;13.744;2023-06-04T04:50:20;100821.65;;;14.70;46.68
74403;BME280;62837;51.082;13.744;2023-06-04T04:52:52;100817.27;;;15.16;46.06
74403;BME280;62837;51.082;13.744;2023-06-04T04:55:23;100812.37;;;15.56;45.61
74403;BME280;62837;51.082;13.744;2023-06-04T04:57:54;100816.86;;;16.03;44.68
74403;BME280;62837;51.082;13.744;2023-06-04T05:00:26;100816.23;;;16.46;44.00
74403;BME280;62837;51.082;13.744;2023-06-04T05:02:57;100815.58;;;16.79;42.91
74403;BME280;62837;51.082;13.744;2023-06-04T05:05:28;100813.05;;;17.07;41.90
74403;BME280;62837;51.082;13.744;2023-06-04T05:08:00;100817.77;;;17.21;41.08
74403;BME280;62837;51.082;13.744;2023-06-04T05:10:34;100817.07;;;17.29;41.07
74403;BME280;62837;51.082;13.744;2023-06-04T05:13:06;100813.83;;;17.41;40.97
74403;BME280;62837;51.082;13.744;2023-06-04T05:15:43;100817.43;;;17.64;41.04
74403;BME280;62837;51.082;13.744;2023-06-04T05:18:14;100817.44;;;17.84;40.29
74403;BME280;62837;51.082;13.744;2023-06-04T05:20:52;100815.52;;;17.91;39.68
74403;BME280;62837;51.082;13.744;2023-06-04T05:23:23;100819.15;;;17.97;39.64
74403;BME280;62837;51.082;13.744;2023-06-04T05:25:54;100822.98;;;18.07;39.02
74403;BME280;62837;51.082;13.744;2023-06-04T05:28:25;100826.67;;;18.18;39.13
74403;BME280;62837;51.082;13.744;2023-06-04T05:30:56;100823.33;;;18.30;38.98
74403;BME280;62837;51.082;13.744;2023-06-04T05:33:31;100822.95;;;18.57;38.42
74403;BME280;62837;51.082;13.744;2023-06-04T05:36:07;100821.69;;;18.68;38.07
74403;BME280;62837;51.082;13.744;2023-06-04T05:38:44;100824.65;;;18.84;38.39
74403;BME280;62837;51.082;13.744;2023-06-04T05:41:16;100823.64;;;19.14;37.82
74403;BME280;62837;51.082;13.744;2023-06-04T05:43:47;100828.52;;;19.45;37.40
74403;BME280;62837;51.082;13.744;2023-06-04T05:46:19;100826.12;;;19.63;36.80
74403;BME280;62837;51.082;13.744;2023-06-04T05:48:51;100821.55;;;19.71;36.42
74403;BME280;62837;51.082;13.744;2023-06-04T05:51:23;100821.77;;;19.82;36.67
74403;BME280;62837;51.082;13.744;2023-06-04T05:53:54;100822.88;;;20.02;36.50
74403;BME280;62837;51.082;13.744;2023-06-04T05:56:25;100824.38;;;20.20;36.04
74403;BME280;62837;51.082;13.744;2023-06-04T05:58:56;100823.32;;;20.31;35.79
74403;BME280;62837;51.082;13.744;2023-06-04T06:01:27;100826.59;;;20.47;35.54
74403;BME280;62837;51.082;13.744;2023-06-04T06:03:59;100825.30;;;20.55;34.49
74403;BME280;62837;51.082;13.744;2023-06-04T06:06:31;100827.04;;;20.56;34.78
74403;BME280;62837;51.082;13.744;2023-06-04T06:09:02;100831.79;;;20.69;34.80
74403;BME280;62837;51.082;13.744;2023-06-04T06:11:35;100824.27;;;20.87;34.68
74403;BME280;62837;51.082;13.744;2023-06-04T06:14:05;100824.10;;;21.03;34.20
74403;BME280;62837;51.082;13.744;2023-06-04T06:16:39;100823.35;;;21.09;34.47
74403;BME280;62837;51.082;13.744;2023-06-04T06:19:10;100824.95;;;21.26;34.00
74403;BME280;62837;51.082;13.744;2023-06-04T06:21:41;100825.19;;;21.34;33.45
74403;BME280;62837;51.082;13.744;2023-06-04T06:24:12;100826.12;;;21.47;33.46
74403;BME280;62837;51.082;13.744;2023-06-04T06:26:44;100827.00;;;21.60;33.12
74403;BME280;62837;51.082;13.744;2023-06-04T06:29:16;100829.38;;;21.75;33.25
74403;BME280;62837;51.082;13.744;2023-06-04T06:31:50;100827.27;;;22.01;33.02
74403;BME280;62837;51.082;13.744;2023-06-04T06:34:21;100831.83;;;22.22;32.98
74403;BME280;62837;51.082;13.744;2023-06-04T06:36:51;100836.50;;;22.38;32.78
74403;BME280;62837;51.082;13.744;2023-06-04T06:39:22;100838.10;;;22.44;31.73
74403;BME280;62837;51.082;13.744;2023-06-04T06:41:53;100836.05;;;22.40;31.30
74403;BME280;62837;51.082;13.744;2023-06-04T06:44:27;100834.52;;;22.35;31.57
74403;BME280;62837;51.082;13.744;2023-06-04T06:46:57;100837.66;;;22.42;31.73
74403;BME280;62837;51.082;13.744;2023-06-04T06:49:28;100838.97;;;22.52;31.46
74403;BME280;62837;51.082;13.744;2023-06-04T06:52:19;100841.92;;;22.67;31.99
74403;BME280;62837;51.082;13.744;2023-06-04T06:54:54;100839.61;;;22.77;31.67
74403;BME280;62837;51.082;13.744;2023-06-04T06:57:26;100841.02;;;22.84;31.66
74403;BME280;62837;51.082;13.744;2023-06-04T06:59:57;100841.12;;;22.89;31.53
74403;BME280;62837;51.082;13.744;2023-06-04T07:02:28;100841.95;;;23.05;32.09
74403;BME280;62837;51.082;13.744;2023-06-04T07:04:59;100842.23;;;23.11;30.81
74403;BME280;62837;51.082;13.744;2023-06-04T07:07:30;100838.11;;;23.10;31.50
74403;BME280;62837;51.082;13.744;2023-06-04T07:10:01;100835.23;;;23.14;30.55
74403;BME280;62837;51.082;13.744;2023-06-04T07:12:33;100836.92;;;23.04;30.62
74403;BME280;62837;51.082;13.744;2023-06-04T07:15:05;100835.44;;;23.01;30.73
74403;BME280;62837;51.082;13.744;2023-06-04T07:17:38;100837.05;;;23.09;31.14
74403;BME280;62837;51.082;13.744;2023-06-04T07:20:08;100831.60;;;23.17;31.27
74403;BME280;62837;51.082;13.744;2023-06-04T07:22:39;100835.72;;;23.29;31.79
74403;BME280;62837;51.082;13.744;2023-06-04T07:25:10;100831.48;;;23.52;31.71
74403;BME280;62837;51.082;13.744;2023-06-04T07:27:41;100827.16;;;23.77;31.08
74403;BME280;62837;51.082;13.744;2023-06-04T07:30:13;100828.56;;;23.89;30.41
74403;BME280;62837;51.082;13.744;2023-06-04T07:32:47;100821.48;;;23.96;30.77
74403;BME280;62837;51.082;13.744;2023-06-04T07:35:18;100819.80;;;24.14;30.96
74403;BME280;62837;51.082;13.744;2023-06-04T07:37:50;100825.58;;;24.35;30.72
74403;BME280;62837;51.082;13.744;2023-06-04T07:40:21;100825.88;;;24.51;30.41
74403;BME280;62837;51.082;13.744;2023-06-04T07:42:52;100825.05;;;24.62;30.50
74403;BME280;62837;51.082;13.744;2023-06-04T07:45:23;100828.27;;;24.77;30.19
74403;BME280;62837;51.082;13.744;2023-06-04T07:47:57;100822.39;;;24.91;29.70
74403;BME280;62837;51.082;13.744;2023-06-04T07:50:28;100818.02;;;25.03;29.70
74403;BME280;62837;51.082;13.744;2023-06-04T07:53:04;100815.66;;;25.13;29.53
74403;BME280;62837;51.082;13.744;2023-06-04T07:55:36;100819.14;;;25.22;29.19
74403;BME280;62837;51.082;13.744;2023-06-04T07:58:06;100819.75;;;25.25;28.89
74403;BME280;62837;51.082;13.744;2023-06-04T08:00:37;100813.83;;;25.22;29.12
74403;BME280;62837;51.082;13.744;2023-06-04T08:03:08;100815.54;;;25.25;28.69
74403;BME280;62837;51.082;13.744;2023-06-04T08:05:39;100811.84;;;25.24;28.78
74403;BME280;62837;51.082;13.744;2023-06-04T08:08:10;100814.67;;;25.25;28.90
74403;BME280;62837;51.082;13.744;2023-06-04T08:10:42;100809.52;;;25.30;28.43
74403;BME280;62837;51.082;13.744;2023-06-04T08:13:12;100812.92;;;25.30;28.36
74403;BME280;62837;51.082;13.744;2023-06-04T08:15:43;100807.06;;;25.38;28.60
74403;BME280;62837;51.082;13.744;2023-06-04T08:18:15;100803.63;;;25.50;28.15
74403;BME280;62837;51.082;13.744;2023-06-04T08:20:46;100800.59;;;25.52;27.78
74403;BME280;62837;51.082;13.744;2023-06-04T08:23:17;100796.05;;;25.53;28.21
74403;BME280;62837;51.082;13.744;2023-06-04T08:25:48;100795.48;;;25.60;27.01
74403;BME280;62837;51.082;13.744;2023-06-04T08:28:19;100795.67;;;25.66;26.00
74403;BME280;62837;51.082;13.744;2023-06-04T08:30:50;100796.45;;;25.65;25.52
74403;BME280;62837;51.082;13.744;2023-06-04T08:33:21;100797.89;;;25.60;25.20
74403;BME280;62837;51.082;13.744;2023-06-04T08:35:52;100799.45;;;25.61;24.52
74403;BME280;62837;51.082;13.744;2023-06-04T08:38:23;100790.98;;;25.49;24.24
74403;BME280;62837;51.082;13.744;2023-06-04T08:41:01;100788.39;;;25.47;24.83
74403;BME280;62837;51.082;13.744;2023-06-04T08:43:34;100787.81;;;25.51;25.05
74403;BME280;62837;51.082;13.744;2023-06-04T08:46:06;100785.34;;;25.47;23.90
74403;BME280;62837;51.082;13.744;2023-06-04T08:48:38;100788.07;;;25.40;24.06
74403;BME280;62837;51.082;13.744;2023-06-04T08:51:10;100794.66;;;25.38;23.68
74403;BME280;62837;51.082;13.744;2023-06-04T08:53:43;100794.55;;;25.23;23.95
74403;BME280;62837;51.082;13.744;2023-06-04T08:56:17;100795.63;;;25.25;24.49
74403;BME280;62837;51.082;13.744;2023-06-04T08:58:48;100795.47;;;25.36;24.10
74403;BME280;62837;51.082;13.744;2023-06-04T09:01:21;100797.59;;;25.27;22.66
74403;BME280;62837;51.082;13.744;2023-06-04T09:03:53;100801.25;;;25.17;22.98
74403;BME280;62837;51.082;13.744;2023-06-04T09:06:26;100797.79;;;25.12;22.23
74403;BME280;62837;51.082;13.744;2023-06-04T09:08:58;100792.83;;;25.08;22.68
74403;BME280;62837;51.082;13.744;2023-06-04T09:11:35;100790.91;;;25.07;23.01
74403;BME280;62837;51.082;13.744;2023-06-04T09:14:08;100790.39;;;24.99;21.86
74403;BME280;62837;51.082;13.744;2023-06-04T09:16:47;100790.29;;;24.76;22.18
74403;BME280;62837;51.082;13.744;2023-06-04T09:19:19;100802.71;;;24.67;22.27
74403;BME280;62837;51.082;13.744;2023-06-04T09:21:54;100798.41;;;24.70;22.80
74403;BME280;62837;51.082;13.744;2023-06-04T09:24:39;100799.04;;;24.75;22.44
74403;BME280;62837;51.082;13.744;2023-06-04T09:27:14;100796.09;;;24.76;22.94
74403;BME280;62837;51.082;13.744;2023-06-04T09:29:51;100795.42;;;24.85;22.84
74403;BME280;62837;51.082;13.744;2023-06-04T09:32:24;100795.76;;;25.01;23.73
74403;BME280;62837;51.082;13.744;2023-06-04T09:35:08;100797.88;;;25.06;22.46
74403;BME280;62837;51.082;13.744;2023-06-04T09:37:39;100799.71;;;25.01;22.65
74403;BME280;62837;51.082;13.744;2023-06-04T09:40:11;100797.19;;;25.03;22.45
74403;BME280;62837;51.082;13.744;2023-06-04T09:42:46;100794.52;;;24.91;22.77
74403;BME280;62837;51.082;13.744;2023-06-04T09:45:29;100790.04;;;24.88;23.52
74403;BME280;62837;51.082;13.744;2023-06-04T09:48:01;100789.27;;;24.91;22.64
74403;BME280;62837;51.082;13.744;2023-06-04T09:50:36;100786.61;;;24.93;23.32
74403;BME280;62837;51.082;13.744;2023-06-04T09:53:18;100787.22;;;24.96;22.28
74403;BME280;62837;51.082;13.744;2023-06-04T09:55:58;100787.27;;;24.89;21.75
74403;BME280;62837;51.082;13.744;2023-06-04T09:58:30;100784.04;;;24.80;22.24
74403;BME280;62837;51.082;13.744;2023-06-04T10:01:03;100779.02;;;24.77;22.17
74403;BME280;62837;51.082;13.744;2023-06-04T10:03:35;100784.57;;;24.69;21.92
74403;BME280;62837;51.082;13.744;2023-06-04T10:06:07;100787.52;;;24.56;22.40
74403;BME280;62837;51.082;13.744;2023-06-04T10:08:42;100783.40;;;24.57;22.50
74403;BME280;62837;51.082;13.744;2023-06-04T10:11:15;100781.23;;;24.62;22.58
74403;BME280;62837;51.082;13.744;2023-06-04T10:13:51;100781.77;;;24.59;22.85
74403;BME280;62837;51.082;13.744;2023-06-04T10:16:24;100777.27;;;24.61;23.05
74403;BME280;62837;51.082;13.744;2023-06-04T10:19:06;100772.12;;;24.65;23.59
74403;BME280;62837;51.082;13.744;2023-06-04T10:21:38;100770.14;;;24.72;23.30
74403;BME280;62837;51.082;13.744;2023-06-04T10:24:10;100771.36;;;24.72;23.23
74403;BME280;62837;51.082;13.744;2023-06-04T10:26:42;100774.23;;;24.76;23.79
74403;BME280;62837;51.082;13.744;2023-06-04T10:29:14;100776.49;;;24.79;22.97
74403;BME280;62837;51.082;13.744;2023-06-04T10:31:43;100775.91;;;24.70;22.59
74403;BME280;62837;51.082;13.744;2023-06-04T10:34:15;100778.65;;;24.68;22.86
74403;BME280;62837;51.082;13.744;2023-06-04T10:36:46;100777.92;;;24.72;23.06
74403;BME280;62837;51.082;13.744;2023-06-04T10:39:27;100772.26;;;24.73;22.92
74403;BME280;62837;51.082;13.744;2023-06-04T10:42:07;100777.11;;;24.70;22.88
74403;BME280;62837;51.082;13.744;2023-06-04T10:44:47;100783.64;;;24.64;22.91
74403;BME280;62837;51.082;13.744;2023-06-04T10:47:22;100781.13;;;24.54;23.28
74403;BME280;62837;51.082;13.744;2023-06-04T10:49:54;100778.55;;;24.44;22.96
74403;BME280;62837;51.082;13.744;2023-06-04T10:52:25;100776.06;;;24.44;23.82
74403;BME280;62837;51.082;13.744;2023-06-04T10:55:04;100773.32;;;24.54;24.37
74403;BME280;62837;51.082;13.744;2023-06-04T10:57:36;100772.45;;;24.61;24.26
74403;BME280;62837;51.082;13.744;2023-06-04T11:00:09;100768.19;;;24.59;23.37
74403;BME280;62837;51.082;13.744;2023-06-04T11:02:52;100771.13;;;24.50;22.80
74403;BME280;62837;51.082;13.744;2023-06-04T11:05:35;100774.23;;;24.34;22.75
74403;BME280;62837;51.082;13.744;2023-06-04T11:08:06;100770.02;;;24.21;23.10
74403;BME280;62837;51.082;13.744;2023-06-04T11:10:40;100768.71;;;24.10;22.44
74403;BME280;62837;51.082;13.744;2023-06-04T11:13:11;100767.23;;;23.98;22.62
74403;BME280;62837;51.082;13.744;2023-06-04T11:15:43;100764.50;;;24.01;23.30
74403;BME280;62837;51.082;13.744;2023-06-04T11:18:16;100770.32;;;24.01;22.63
74403;BME280;62837;51.082;13.744;2023-06-04T11:20:49;100768.33;;;23.88;22.81
74403;BME280;62837;51.082;13.744;2023-06-04T11:23:21;100771.36;;;23.92;23.57
74403;BME280;62837;51.082;13.744;2023-06-04T11:25:54;100768.08;;;23.98;23.57
74403;BME280;62837;51.082;13.744;2023-06-04T11:28:25;100763.39;;;24.05;23.65
74403;BME280;62837;51.082;13.744;2023-06-04T11:31:00;100760.77;;;24.07;24.39
74403;BME280;62837;51.082;13.744;2023-06-04T11:33:43;100755.89;;;24.18;24.76
74403;BME280;62837;51.082;13.744;2023-06-04T11:36:23;100761.11;;;24.29;24.43
74403;BME280;62837;51.082;13.744;2023-06-04T11:38:59;100757.77;;;24.24;24.11
74403;BME280;62837;51.082;13.744;2023-06-04T11:41:31;100757.16;;;24.21;23.64
74403;BME280;62837;51.082;13.744;2023-06-04T11:44:05;100751.68;;;24.11;22.59
74403;BME280;62837;51.082;13.744;2023-06-04T11:46:42;100749.34;;;23.95;23.25
74403;BME280;62837;51.082;13.744;2023-06-04T11:49:17;100760.03;;;23.91;23.46
74403;BME280;62837;51.082;13.744;2023-06-04T11:51:50;100754.07;;;23.83;23.19
74403;BME280;62837;51.082;13.744;2023-06-04T11:54:22;100756.64;;;23.81;23.47
74403;BME280;62837;51.082;13.744;2023-06-04T11:56:54;100754.43;;;23.84;23.35
74403;BME280;62837;51.082;13.744;2023-06-04T11:59:25;100756.19;;;23.89;24.07
74403;BME280;62837;51.082;13.744;2023-06-04T12:01:56;100755.12;;;23.96;23.95
74403;BME280;62837;51.082;13.744;2023-06-04T12:04:30;100760.64;;;24.00;23.29
74403;BME280;62837;51.082;13.744;2023-06-04T12:07:03;100760.48;;;23.90;22.74
74403;BME280;62837;51.082;13.744;2023-06-04T12:09:35;100752.05;;;23.73;22.96
74403;BME280;62837;51.082;13.744;2023-06-04T12:12:09;100746.71;;;23.70;23.64
74403;BME280;62837;51.082;13.744;2023-06-04T12:14:41;100743.38;;;23.75;23.42
74403;BME280;62837;51.082;13.744;2023-06-04T12:17:14;100746.30;;;23.83;23.59
74403;BME280;62837;51.082;13.744;2023-06-04T12:19:50;100741.17;;;23.88;23.50
74403;BME280;62837;51.082;13.744;2023-06-04T12:22:21;100745.41;;;23.89;23.96
74403;BME280;62837;51.082;13.744;2023-06-04T12:24:52;100742.95;;;23.89;23.87
74403;BME280;62837;51.082;13.744;2023-06-04T12:27:29;100751.73;;;23.90;23.71
74403;BME280;62837;51.082;13.744;2023-06-04T12:30:02;100748.68;;;23.90;23.20
74403;BME280;62837;51.082;13.744;2023-06-04T12:32:36;100752.23;;;23.90;23.45
74403;BME280;62837;51.082;13.744;2023-06-04T12:35:08;100751.64;;;23.86;23.53
74403;BME280;62837;51.082;13.744;2023-06-04T12:37:39;100750.98;;;23.80;23.11
74403;BME280;62837;51.082;13.744;2023-06-04T12:40:11;100746.05;;;23.69;23.80
74403;BME280;62837;51.082;13.744;2023-06-04T12:42:42;100744.15;;;23.66;23.74
74403;BME280;62837;51.082;13.744;2023-06-04T12:45:13;100744.19;;;23.63;23.14
74403;BME280;62837;51.082;13.744;2023-06-04T12:47:44;100741.35;;;23.58;23.10
74403;BME280;62837;51.082;13.744;2023-06-04T12:50:17;100738.36;;;23.54;23.06
74403;BME280;62837;51.082;13.744;2023-06-04T12:52:51;100731.00;;;23.52;23.46
74403;BME280;62837;51.082;13.744;2023-06-04T12:55:22;100736.00;;;23.51;23.34
74403;BME280;62837;51.082;13.744;2023-06-04T12:57:56;100735.98;;;23.53;23.70
74403;BME280;62837;51.082;13.744;2023-06-04T13:00:27;100737.08;;;23.54;23.42
74403;BME280;62837;51.082;13.744;2023-06-04T13:02:58;100727.21;;;23.58;23.54
74403;BME280;62837;51.082;13.744;2023-06-04T13:05:29;100731.83;;;23.61;23.57
74403;BME280;62837;51.082;13.744;2023-06-04T13:07:59;100728.73;;;23.60;23.55